sensor_id;sensor_type;location;lat;lon;timestamp;P1;durP1;ratioP1;P2;durP2;ratioP2
9848;SDS011;4963;51.444;6.528;2022-08-23T00:02:07;4.50;;;2.28;;
9848;SDS011;4963;51.444;6.528;2022-08-23T00:04:35;5.32;;;2.50;;
9848;SDS011;4963;51.444;6.528;2022-08-23T00:07:06;4.10;;;2.50;;
9848;SDS011;4963;51.444;6.528;2022-08-23T00:09:40;7.00;;;3.08;;
9848;SDS011;4963;51.444;6.528;2022-08-23T00:12:09;5.20;;;2.50;;
9848;SDS011;4963;51.444;6.528;2022-08-23T00:14:41;8.07;;;3.42;;
9848;SDS011;4963;51.444;6.528;2022-08-23T00:17:09;4.95;;;2.92;;
9848;SDS011;4963;51.444;6.528;2022-08-23T00:19:37;3.10;;;2.25;;
9848;SDS011;4963;51.444;6.528;2022-08-23T00:22:06;5.22;;;2.90;;
9848;SDS011;4963;51.444;6.528;2022-08-23T00:24:34;7.80;;;3.08;;
9848;SDS011;4963;51.444;6.528;2022-08-23T00:27:03;6.18;;;2.55;;
9848;SDS011;4963;51.444;6.528;2022-08-23T00:29:34;4.82;;;2.75;;
9848;SDS011;4963;51.444;6.528;2022-08-23T00:32:03;3.60;;;2.55;;
9848;SDS011;4963;51.444;6.528;2022-08-23T00:34:31;6.55;;;3.03;;
9848;SDS011;4963;51.444;6.528;2022-08-23T00:36:59;5.57;;;2.80;;
9848;SDS011;4963;51.444;6.528;2022-08-23T00:39:28;5.55;;;2.97;;
9848;SDS011;4963;51.444;6.528;2022-08-23T00:41:56;6.20;;;2.67;;
9848;SDS011;4963;51.444;6.528;2022-08-23T00:44:25;9.52;;;3.13;;
9848;SDS011;4963;51.444;6.528;2022-08-23T00:47:14;4.15;;;2.80;;
9848;SDS011;4963;51.444;6.528;2022-08-23T00:50:01;4.53;;;2.60;;
9848;SDS011;4963;51.444;6.528;2022-08-23T00:52:35;6.90;;;3.42;;
9848;SDS011;4963;51.444;6.528;2022-08-23T00:55:07;5.60;;;2.80;;
9848;SDS011;4963;51.444;6.528;2022-08-23T00:57:34;6.10;;;2.97;;
9848;SDS011;4963;51.444;6.528;2022-08-23T01:00:03;6.07;;;2.90;;
9848;SDS011;4963;51.444;6.528;2022-08-23T01:02:32;5.38;;;3.05;;
9848;SDS011;4963;51.444;6.528;2022-08-23T01:05:00;3.97;;;2.83;;
9848;SDS011;4963;51.444;6.528;2022-08-23T01:07:30;3.88;;;2.95;;
9848;SDS011;4963;51.444;6.528;2022-08-23T01:10:07;6.90;;;3.03;;
9848;SDS011;4963;51.444;6.528;2022-08-23T01:12:40;6.43;;;3.17;;
9848;SDS011;4963;51.444;6.528;2022-08-23T01:15:14;6.82;;;3.22;;
9848;SDS011;4963;51.444;6.528;2022-08-23T01:17:46;4.47;;;3.20;;
9848;SDS011;4963;51.444;6.528;2022-08-23T01:20:19;6.90;;;3.22;;
9848;SDS011;4963;51.444;6.528;2022-08-23T01:22:50;6.50;;;2.72;;
9848;SDS011;4963;51.444;6.528;2022-08-23T01:25:23;6.78;;;3.38;;
9848;SDS011;4963;51.444;6.528;2022-08-23T01:27:52;5.78;;;3.10;;
9848;SDS011;4963;51.444;6.528;2022-08-23T01:30:22;7.05;;;3.22;;
9848;SDS011;4963;51.444;6.528;2022-08-23T01:32:51;4.45;;;3.05;;
9848;SDS011;4963;51.444;6.528;2022-08-23T01:35:22;5.22;;;3.28;;
9848;SDS011;4963;51.444;6.528;2022-08-23T01:37:55;5.18;;;3.13;;
9848;SDS011;4963;51.444;6.528;2022-08-23T01:40:23;4.15;;;2.92;;
9848;SDS011;4963;51.444;6.528;2022-08-23T01:42:50;5.25;;;3.20;;
9848;SDS011;4963;51.444;6.528;2022-08-23T01:45:17;5.95;;;3.40;;
9848;SDS011;4963;51.444;6.528;2022-08-23T01:47:44;4.72;;;3.22;;
9848;SDS011;4963;51.444;6.528;2022-08-23T01:50:12;6.65;;;3.20;;
9848;SDS011;4963;51.444;6.528;2022-08-23T01:52:39;4.18;;;2.70;;
9848;SDS011;4963;51.444;6.528;2022-08-23T01:55:08;4.30;;;3.10;;
9848;SDS011;4963;51.444;6.528;2022-08-23T01:57:36;5.15;;;2.97;;
9848;SDS011;4963;51.444;6.528;2022-08-23T02:00:06;5.00;;;3.22;;
9848;SDS011;4963;51.444;6.528;2022-08-23T02:02:34;4.80;;;3.25;;
9848;SDS011;4963;51.444;6.528;2022-08-23T02:05:02;4.28;;;3.47;;
9848;SDS011;4963;51.444;6.528;2022-08-23T02:07:29;6.03;;;3.45;;
9848;SDS011;4963;51.444;6.528;2022-08-23T02:09:56;5.10;;;3.30;;
9848;SDS011;4963;51.444;6.528;2022-08-23T02:12:23;6.00;;;3.30;;
9848;SDS011;4963;51.444;6.528;2022-08-23T02:14:52;6.05;;;3.63;;
9848;SDS011;4963;51.444;6.528;2022-08-23T02:17:19;8.30;;;3.58;;
9848;SDS011;4963;51.444;6.528;2022-08-23T02:19:46;4.28;;;3.20;;
9848;SDS011;4963;51.444;6.528;2022-08-23T02:22:13;4.82;;;3.22;;
9848;SDS011;4963;51.444;6.528;2022-08-23T02:24:40;5.03;;;3.05;;
9848;SDS011;4963;51.444;6.528;2022-08-23T02:27:08;4.25;;;3.08;;
9848;SDS011;4963;51.444;6.528;2022-08-23T02:29:38;7.47;;;3.33;;
9848;SDS011;4963;51.444;6.528;2022-08-23T02:32:07;5.80;;;3.42;;
9848;SDS011;4963;51.444;6.528;2022-08-23T02:34:34;5.50;;;3.35;;
9848;SDS011;4963;51.444;6.528;2022-08-23T02:37:01;6.50;;;3.00;;
9848;SDS011;4963;51.444;6.528;2022-08-23T02:39:28;5.45;;;3.20;;
9848;SDS011;4963;51.444;6.528;2022-08-23T02:41:55;6.07;;;3.40;;
9848;SDS011;4963;51.444;6.528;2022-08-23T02:44:22;5.95;;;2.90;;
9848;SDS011;4963;51.444;6.528;2022-08-23T02:46:49;5.22;;;3.00;;
9848;SDS011;4963;51.444;6.528;2022-08-23T02:49:17;6.40;;;2.90;;
9848;SDS011;4963;51.444;6.528;2022-08-23T02:51:45;6.25;;;3.13;;
9848;SDS011;4963;51.444;6.528;2022-08-23T02:54:12;4.30;;;3.20;;
9848;SDS011;4963;51.444;6.528;2022-08-23T02:56:39;8.07;;;3.53;;
9848;SDS011;4963;51.444;6.528;2022-08-23T02:59:06;4.20;;;3.03;;
9848;SDS011;4963;51.444;6.528;2022-08-23T03:01:34;5.32;;;3.67;;
9848;SDS011;4963;51.444;6.528;2022-08-23T03:04:03;4.50;;;3.22;;
9848;SDS011;4963;51.444;6.528;2022-08-23T03:06:32;6.05;;;3.47;;
9848;SDS011;4963;51.444;6.528;2022-08-23T03:08:59;4.35;;;2.88;;
9848;SDS011;4963;51.444;6.528;2022-08-23T03:11:27;5.85;;;3.22;;
9848;SDS011;4963;51.444;6.528;2022-08-23T03:13:54;4.18;;;3.30;;
9848;SDS011;4963;51.444;6.528;2022-08-23T03:16:21;6.55;;;3.50;;
9848;SDS011;4963;51.444;6.528;2022-08-23T03:18:49;6.18;;;3.40;;
9848;SDS011;4963;51.444;6.528;2022-08-23T03:21:16;6.80;;;3.17;;
9848;SDS011;4963;51.444;6.528;2022-08-23T03:23:45;4.50;;;3.03;;
9848;SDS011;4963;51.444;6.528;2022-08-23T03:26:13;4.50;;;3.13;;
9848;SDS011;4963;51.444;6.528;2022-08-23T03:28:41;6.18;;;2.88;;
9848;SDS011;4963;51.444;6.528;2022-08-23T03:31:09;9.27;;;3.15;;
9848;SDS011;4963;51.444;6.528;2022-08-23T03:33:38;3.70;;;2.95;;
9848;SDS011;4963;51.444;6.528;2022-08-23T03:36:06;4.72;;;3.08;;
9848;SDS011;4963;51.444;6.528;2022-08-23T03:38:34;3.88;;;3.10;;
9848;SDS011;4963;51.444;6.528;2022-08-23T03:41:04;6.45;;;3.22;;
9848;SDS011;4963;51.444;6.528;2022-08-23T03:43:31;4.30;;;3.67;;
9848;SDS011;4963;51.444;6.528;2022-08-23T03:45:58;6.05;;;3.33;;
9848;SDS011;4963;51.444;6.528;2022-08-23T03:48:25;4.82;;;3.95;;
9848;SDS011;4963;51.444;6.528;2022-08-23T03:50:52;3.50;;;3.10;;
9848;SDS011;4963;51.444;6.528;2022-08-23T03:53:19;6.65;;;3.47;;
9848;SDS011;4963;51.444;6.528;2022-08-23T03:55:47;8.00;;;3.90;;
9848;SDS011;4963;51.444;6.528;2022-08-23T03:58:17;4.65;;;3.50;;
9848;SDS011;4963;51.444;6.528;2022-08-23T04:00:45;5.00;;;3.50;;
9848;SDS011;4963;51.444;6.528;2022-08-23T04:03:12;6.30;;;3.70;;
9848;SDS011;4963;51.444;6.528;2022-08-23T04:05:39;5.43;;;3.78;;
9848;SDS011;4963;51.444;6.528;2022-08-23T04:08:07;4.97;;;3.22;;
9848;SDS011;4963;51.444;6.528;2022-08-23T04:10:34;3.78;;;3.47;;
9848;SDS011;4963;51.444;6.528;2022-08-23T04:13:03;5.30;;;3.40;;
9848;SDS011;4963;51.444;6.528;2022-08-23T04:15:33;5.20;;;3.38;;
9848;SDS011;4963;51.444;6.528;2022-08-23T04:18:00;4.80;;;3.42;;
9848;SDS011;4963;51.444;6.528;2022-08-23T04:20:27;4.47;;;3.45;;
9848;SDS011;4963;51.444;6.528;2022-08-23T04:22:54;5.40;;;3.40;;
9848;SDS011;4963;51.444;6.528;2022-08-23T04:25:21;5.65;;;3.60;;
9848;SDS011;4963;51.444;6.528;2022-08-23T04:27:49;8.30;;;3.92;;
9848;SDS011;4963;51.444;6.528;2022-08-23T04:30:16;7.18;;;3.88;;
9848;SDS011;4963;51.444;6.528;2022-08-23T04:32:45;7.13;;;3.85;;
9848;SDS011;4963;51.444;6.528;2022-08-23T04:35:12;4.93;;;4.10;;
9848;SDS011;4963;51.444;6.528;2022-08-23T04:37:40;16.20;;;8.63;;
9848;SDS011;4963;51.444;6.528;2022-08-23T04:40:07;5.90;;;4.35;;
9848;SDS011;4963;51.444;6.528;2022-08-23T04:42:53;6.75;;;4.22;;
9848;SDS011;4963;51.444;6.528;2022-08-23T04:45:20;6.13;;;3.47;;
9848;SDS011;4963;51.444;6.528;2022-08-23T04:47:48;7.70;;;3.67;;
9848;SDS011;4963;51.444;6.528;2022-08-23T04:50:15;7.55;;;4.07;;
9848;SDS011;4963;51.444;6.528;2022-08-23T04:52:42;5.20;;;3.70;;
9848;SDS011;4963;51.444;6.528;2022-08-23T04:55:09;8.43;;;4.18;;
9848;SDS011;4963;51.444;6.528;2022-08-23T04:57:36;8.05;;;4.47;;
9848;SDS011;4963;51.444;6.528;2022-08-23T05:00:04;7.30;;;4.18;;
9848;SDS011;4963;51.444;6.528;2022-08-23T05:02:32;7.50;;;4.25;;
9848;SDS011;4963;51.444;6.528;2022-08-23T05:05:00;26.73;;;10.70;;
9848;SDS011;4963;51.444;6.528;2022-08-23T05:07:27;14.05;;;6.88;;
9848;SDS011;4963;51.444;6.528;2022-08-23T05:09:55;9.90;;;4.65;;
9848;SDS011;4963;51.444;6.528;2022-08-23T05:12:22;4.95;;;4.45;;
9848;SDS011;4963;51.444;6.528;2022-08-23T05:14:49;7.57;;;4.78;;
9848;SDS011;4963;51.444;6.528;2022-08-23T05:17:16;5.68;;;4.93;;
9848;SDS011;4963;51.444;6.528;2022-08-23T05:19:43;7.65;;;5.18;;
9848;SDS011;4963;51.444;6.528;2022-08-23T05:22:11;9.50;;;5.85;;
9848;SDS011;4963;51.444;6.528;2022-08-23T05:24:38;9.73;;;5.13;;
9848;SDS011;4963;51.444;6.528;2022-08-23T05:27:05;10.18;;;5.93;;
9848;SDS011;4963;51.444;6.528;2022-08-23T05:29:31;10.48;;;6.03;;
9848;SDS011;4963;51.444;6.528;2022-08-23T05:31:58;8.85;;;5.75;;
9848;SDS011;4963;51.444;6.528;2022-08-23T05:34:25;9.43;;;6.35;;
9848;SDS011;4963;51.444;6.528;2022-08-23T05:36:53;9.02;;;6.10;;
9848;SDS011;4963;51.444;6.528;2022-08-23T05:39:21;13.20;;;7.18;;
9848;SDS011;4963;51.444;6.528;2022-08-23T05:41:48;10.65;;;6.28;;
9848;SDS011;4963;51.444;6.528;2022-08-23T05:44:15;9.13;;;6.18;;
9848;SDS011;4963;51.444;6.528;2022-08-23T05:46:42;9.30;;;5.80;;
9848;SDS011;4963;51.444;6.528;2022-08-23T05:49:09;11.45;;;6.15;;
9848;SDS011;4963;51.444;6.528;2022-08-23T05:51:36;8.30;;;5.22;;
9848;SDS011;4963;51.444;6.528;2022-08-23T05:54:03;6.80;;;6.00;;
9848;SDS011;4963;51.444;6.528;2022-08-23T05:56:35;7.97;;;5.57;;
9848;SDS011;4963;51.444;6.528;2022-08-23T05:59:04;9.93;;;6.50;;
9848;SDS011;4963;51.444;6.528;2022-08-23T06:01:32;9.68;;;6.25;;
9848;SDS011;4963;51.444;6.528;2022-08-23T06:04:00;10.57;;;6.63;;
9848;SDS011;4963;51.444;6.528;2022-08-23T06:06:30;14.13;;;7.20;;
9848;SDS011;4963;51.444;6.528;2022-08-23T06:08:57;13.10;;;7.75;;
9848;SDS011;4963;51.444;6.528;2022-08-23T06:11:25;13.10;;;7.32;;
9848;SDS011;4963;51.444;6.528;2022-08-23T06:13:56;12.50;;;6.95;;
9848;SDS011;4963;51.444;6.528;2022-08-23T06:16:25;12.38;;;6.88;;
9848;SDS011;4963;51.444;6.528;2022-08-23T06:18:54;14.27;;;7.95;;
9848;SDS011;4963;51.444;6.528;2022-08-23T06:21:21;12.07;;;8.63;;
9848;SDS011;4963;51.444;6.528;2022-08-23T06:23:49;14.07;;;8.27;;
9848;SDS011;4963;51.444;6.528;2022-08-23T06:26:18;15.85;;;8.60;;
9848;SDS011;4963;51.444;6.528;2022-08-23T06:28:46;18.88;;;8.48;;
9848;SDS011;4963;51.444;6.528;2022-08-23T06:31:16;15.65;;;9.35;;
9848;SDS011;4963;51.444;6.528;2022-08-23T06:34:04;14.68;;;8.20;;
9848;SDS011;4963;51.444;6.528;2022-08-23T06:36:31;13.82;;;8.15;;
9848;SDS011;4963;51.444;6.528;2022-08-23T06:38:58;15.90;;;9.07;;
9848;SDS011;4963;51.444;6.528;2022-08-23T06:41:25;15.85;;;9.23;;
9848;SDS011;4963;51.444;6.528;2022-08-23T06:43:52;12.77;;;8.50;;
9848;SDS011;4963;51.444;6.528;2022-08-23T06:46:21;13.65;;;9.13;;
9848;SDS011;4963;51.444;6.528;2022-08-23T06:48:50;12.77;;;8.45;;
9848;SDS011;4963;51.444;6.528;2022-08-23T06:51:20;16.27;;;8.02;;
9848;SDS011;4963;51.444;6.528;2022-08-23T06:53:50;11.85;;;8.73;;
9848;SDS011;4963;51.444;6.528;2022-08-23T06:56:19;14.05;;;8.65;;
9848;SDS011;4963;51.444;6.528;2022-08-23T06:58:47;13.85;;;8.57;;
9848;SDS011;4963;51.444;6.528;2022-08-23T07:01:17;13.68;;;8.52;;
9848;SDS011;4963;51.444;6.528;2022-08-23T07:03:47;12.00;;;9.07;;
9848;SDS011;4963;51.444;6.528;2022-08-23T07:06:19;11.88;;;7.20;;
9848;SDS011;4963;51.444;6.528;2022-08-23T07:08:46;14.35;;;8.30;;
9848;SDS011;4963;51.444;6.528;2022-08-23T07:11:13;13.27;;;7.18;;
9848;SDS011;4963;51.444;6.528;2022-08-23T07:13:40;16.45;;;8.15;;
9848;SDS011;4963;51.444;6.528;2022-08-23T07:16:07;10.73;;;6.38;;
9848;SDS011;4963;51.444;6.528;2022-08-23T07:18:34;10.18;;;6.55;;
9848;SDS011;4963;51.444;6.528;2022-08-23T07:21:03;13.98;;;6.90;;
9848;SDS011;4963;51.444;6.528;2022-08-23T07:23:31;11.63;;;7.82;;
9848;SDS011;4963;51.444;6.528;2022-08-23T07:25:59;10.30;;;6.60;;
9848;SDS011;4963;51.444;6.528;2022-08-23T07:28:28;14.48;;;7.20;;
9848;SDS011;4963;51.444;6.528;2022-08-23T07:30:59;10.43;;;5.90;;
9848;SDS011;4963;51.444;6.528;2022-08-23T07:33:32;19.38;;;14.57;;
9848;SDS011;4963;51.444;6.528;2022-08-23T07:35:59;10.40;;;7.15;;
9848;SDS011;4963;51.444;6.528;2022-08-23T07:38:27;11.52;;;6.68;;
9848;SDS011;4963;51.444;6.528;2022-08-23T07:40:54;9.30;;;6.47;;
9848;SDS011;4963;51.444;6.528;2022-08-23T07:43:21;8.68;;;6.20;;
9848;SDS011;4963;51.444;6.528;2022-08-23T07:45:48;10.90;;;6.15;;
9848;SDS011;4963;51.444;6.528;2022-08-23T07:48:15;11.45;;;6.15;;
9848;SDS011;4963;51.444;6.528;2022-08-23T07:50:49;9.40;;;6.90;;
9848;SDS011;4963;51.444;6.528;2022-08-23T07:53:18;11.75;;;6.97;;
9848;SDS011;4963;51.444;6.528;2022-08-23T07:55:47;15.13;;;7.13;;
9848;SDS011;4963;51.444;6.528;2022-08-23T07:58:14;10.63;;;6.00;;
9848;SDS011;4963;51.444;6.528;2022-08-23T08:00:41;10.70;;;6.40;;
9848;SDS011;4963;51.444;6.528;2022-08-23T08:03:08;10.68;;;6.85;;
9848;SDS011;4963;51.444;6.528;2022-08-23T08:05:35;10.00;;;6.07;;
9848;SDS011;4963;51.444;6.528;2022-08-23T08:08:06;11.38;;;6.40;;
9848;SDS011;4963;51.444;6.528;2022-08-23T08:10:37;9.73;;;6.35;;
9848;SDS011;4963;51.444;6.528;2022-08-23T08:13:07;11.98;;;6.15;;
9848;SDS011;4963;51.444;6.528;2022-08-23T08:15:35;9.95;;;6.10;;
9848;SDS011;4963;51.444;6.528;2022-08-23T08:18:06;10.68;;;5.25;;
9848;SDS011;4963;51.444;6.528;2022-08-23T08:20:33;8.70;;;4.95;;
9848;SDS011;4963;51.444;6.528;2022-08-23T08:23:00;8.15;;;5.57;;
9848;SDS011;4963;51.444;6.528;2022-08-23T08:25:27;6.93;;;4.43;;
9848;SDS011;4963;51.444;6.528;2022-08-23T08:27:58;10.57;;;5.72;;
9848;SDS011;4963;51.444;6.528;2022-08-23T08:30:26;10.32;;;5.82;;
9848;SDS011;4963;51.444;6.528;2022-08-23T08:32:53;11.25;;;5.50;;
9848;SDS011;4963;51.444;6.528;2022-08-23T08:35:20;10.20;;;5.78;;
9848;SDS011;4963;51.444;6.528;2022-08-23T08:37:48;15.07;;;5.95;;
9848;SDS011;4963;51.444;6.528;2022-08-23T08:40:15;7.70;;;5.00;;
9848;SDS011;4963;51.444;6.528;2022-08-23T08:42:52;9.43;;;5.10;;
9848;SDS011;4963;51.444;6.528;2022-08-23T08:45:35;9.48;;;5.97;;
9848;SDS011;4963;51.444;6.528;2022-08-23T08:48:18;12.27;;;6.82;;
9848;SDS011;4963;51.444;6.528;2022-08-23T08:50:50;8.10;;;5.70;;
9848;SDS011;4963;51.444;6.528;2022-08-23T08:53:22;15.57;;;6.90;;
9848;SDS011;4963;51.444;6.528;2022-08-23T08:55:52;16.00;;;8.02;;
9848;SDS011;4963;51.444;6.528;2022-08-23T08:58:25;14.90;;;7.35;;
9848;SDS011;4963;51.444;6.528;2022-08-23T09:00:59;15.20;;;6.43;;
9848;SDS011;4963;51.444;6.528;2022-08-23T09:03:28;12.45;;;7.03;;
9848;SDS011;4963;51.444;6.528;2022-08-23T09:05:59;9.93;;;6.65;;
9848;SDS011;4963;51.444;6.528;2022-08-23T09:08:39;12.05;;;7.05;;
9848;SDS011;4963;51.444;6.528;2022-08-23T09:11:17;10.88;;;6.47;;
9848;SDS011;4963;51.444;6.528;2022-08-23T09:14:02;12.48;;;7.88;;
9848;SDS011;4963;51.444;6.528;2022-08-23T09:16:42;13.23;;;7.60;;
9848;SDS011;4963;51.444;6.528;2022-08-23T09:19:15;13.30;;;8.05;;
9848;SDS011;4963;51.444;6.528;2022-08-23T09:21:45;13.02;;;9.73;;
9848;SDS011;4963;51.444;6.528;2022-08-23T09:24:13;14.48;;;10.20;;
9848;SDS011;4963;51.444;6.528;2022-08-23T09:26:41;12.85;;;6.97;;
9848;SDS011;4963;51.444;6.528;2022-08-23T09:29:13;17.60;;;8.32;;
9848;SDS011;4963;51.444;6.528;2022-08-23T09:31:47;12.60;;;6.70;;
9848;SDS011;4963;51.444;6.528;2022-08-23T09:34:18;12.90;;;8.00;;
9848;SDS011;4963;51.444;6.528;2022-08-23T09:36:47;14.02;;;6.53;;
9848;SDS011;4963;51.444;6.528;2022-08-23T09:39:28;12.75;;;7.05;;
9848;SDS011;4963;51.444;6.528;2022-08-23T09:41:56;10.65;;;7.25;;
9848;SDS011;4963;51.444;6.528;2022-08-23T09:44:31;12.32;;;6.10;;
9848;SDS011;4963;51.444;6.528;2022-08-23T09:47:07;12.35;;;6.93;;
9848;SDS011;4963;51.444;6.528;2022-08-23T09:49:37;11.90;;;6.32;;
9848;SDS011;4963;51.444;6.528;2022-08-23T09:52:18;8.52;;;4.90;;
9848;SDS011;4963;51.444;6.528;2022-08-23T09:54:53;8.32;;;5.25;;
9848;SDS011;4963;51.444;6.528;2022-08-23T09:57:22;10.32;;;5.60;;
9848;SDS011;4963;51.444;6.528;2022-08-23T09:59:52;11.38;;;5.82;;
9848;SDS011;4963;51.444;6.528;2022-08-23T10:02:25;12.25;;;6.03;;
9848;SDS011;4963;51.444;6.528;2022-08-23T10:05:00;11.30;;;5.25;;
9848;SDS011;4963;51.444;6.528;2022-08-23T10:07:32;10.07;;;5.03;;
9848;SDS011;4963;51.444;6.528;2022-08-23T10:12:56;8.75;;;4.88;;
9848;SDS011;4963;51.444;6.528;2022-08-23T10:15:27;5.32;;;4.53;;
9848;SDS011;4963;51.444;6.528;2022-08-23T10:18:06;6.68;;;4.00;;
9848;SDS011;4963;51.444;6.528;2022-08-23T10:20:37;8.68;;;4.63;;
9848;SDS011;4963;51.444;6.528;2022-08-23T10:23:15;6.40;;;4.18;;
9848;SDS011;4963;51.444;6.528;2022-08-23T10:25:49;9.43;;;5.90;;
9848;SDS011;4963;51.444;6.528;2022-08-23T10:28:22;9.05;;;4.95;;
9848;SDS011;4963;51.444;6.528;2022-08-23T10:31:17;8.45;;;4.95;;
9848;SDS011;4963;51.444;6.528;2022-08-23T10:33:59;6.80;;;5.10;;
9848;SDS011;4963;51.444;6.528;2022-08-23T10:36:37;9.15;;;4.60;;
9848;SDS011;4963;51.444;6.528;2022-08-23T10:39:14;9.73;;;4.60;;
9848;SDS011;4963;51.444;6.528;2022-08-23T10:41:50;8.95;;;4.55;;
9848;SDS011;4963;51.444;6.528;2022-08-23T10:44:27;8.55;;;4.15;;
9848;SDS011;4963;51.444;6.528;2022-08-23T10:49:53;13.65;;;4.25;;
9848;SDS011;4963;51.444;6.528;2022-08-23T10:52:25;12.15;;;4.28;;
9848;SDS011;4963;51.444;6.528;2022-08-23T10:54:57;10.43;;;4.65;;
9848;SDS011;4963;51.444;6.528;2022-08-23T10:57:31;10.52;;;4.85;;
9848;SDS011;4963;51.444;6.528;2022-08-23T11:00:00;9.32;;;4.30;;
9848;SDS011;4963;51.444;6.528;2022-08-23T11:02:32;10.75;;;4.13;;
9848;SDS011;4963;51.444;6.528;2022-08-23T11:05:17;8.85;;;3.85;;
9848;SDS011;4963;51.444;6.528;2022-08-23T11:07:54;9.68;;;4.47;;
9848;SDS011;4963;51.444;6.528;2022-08-23T11:10:25;13.68;;;4.15;;
9848;SDS011;4963;51.444;6.528;2022-08-23T11:12:59;9.27;;;3.95;;
9848;SDS011;4963;51.444;6.528;2022-08-23T11:15:30;9.68;;;4.50;;
9848;SDS011;4963;51.444;6.528;2022-08-23T11:18:05;10.13;;;4.38;;
9848;SDS011;4963;51.444;6.528;2022-08-23T11:23:35;9.68;;;3.67;;
9848;SDS011;4963;51.444;6.528;2022-08-23T11:26:08;6.78;;;3.45;;
9848;SDS011;4963;51.444;6.528;2022-08-23T11:28:38;8.27;;;3.42;;
9848;SDS011;4963;51.444;6.528;2022-08-23T11:31:17;7.45;;;3.95;;
9848;SDS011;4963;51.444;6.528;2022-08-23T11:33:49;7.15;;;3.50;;
9848;SDS011;4963;51.444;6.528;2022-08-23T11:36:21;8.55;;;3.35;;
9848;SDS011;4963;51.444;6.528;2022-08-23T11:39:08;6.95;;;3.45;;
9848;SDS011;4963;51.444;6.528;2022-08-23T11:44:26;6.85;;;3.60;;
9848;SDS011;4963;51.444;6.528;2022-08-23T11:46:59;5.43;;;3.22;;
9848;SDS011;4963;51.444;6.528;2022-08-23T11:53:03;8.50;;;3.42;;
9848;SDS011;4963;51.444;6.528;2022-08-23T11:55:53;4.93;;;2.90;;
9848;SDS011;4963;51.444;6.528;2022-08-23T11:58:44;5.43;;;3.20;;
9848;SDS011;4963;51.444;6.528;2022-08-23T12:01:28;6.97;;;3.13;;
9848;SDS011;4963;51.444;6.528;2022-08-23T12:03:57;7.30;;;3.15;;
9848;SDS011;4963;51.444;6.528;2022-08-23T12:06:36;4.85;;;3.17;;
9848;SDS011;4963;51.444;6.528;2022-08-23T12:09:10;6.00;;;2.72;;
9848;SDS011;4963;51.444;6.528;2022-08-23T12:12:10;6.65;;;3.20;;
9848;SDS011;4963;51.444;6.528;2022-08-23T12:14:49;7.18;;;3.20;;
9848;SDS011;4963;51.444;6.528;2022-08-23T12:20:25;6.63;;;3.47;;
9848;SDS011;4963;51.444;6.528;2022-08-23T12:22:59;8.18;;;3.13;;
9848;SDS011;4963;51.444;6.528;2022-08-23T12:25:34;7.90;;;3.28;;
9848;SDS011;4963;51.444;6.528;2022-08-23T12:28:04;6.75;;;3.47;;
9848;SDS011;4963;51.444;6.528;2022-08-23T12:30:48;6.25;;;3.25;;
9848;SDS011;4963;51.444;6.528;2022-08-23T12:33:24;5.95;;;3.40;;
9848;SDS011;4963;51.444;6.528;2022-08-23T12:36:04;7.53;;;3.15;;
9848;SDS011;4963;51.444;6.528;2022-08-23T12:38:36;7.40;;;3.30;;
9848;SDS011;4963;51.444;6.528;2022-08-23T12:41:13;8.75;;;3.30;;
9848;SDS011;4963;51.444;6.528;2022-08-23T12:43:55;4.97;;;2.90;;
9848;SDS011;4963;51.444;6.528;2022-08-23T12:46:28;4.30;;;2.55;;
9848;SDS011;4963;51.444;6.528;2022-08-23T12:49:00;4.68;;;3.15;;
9848;SDS011;4963;51.444;6.528;2022-08-23T12:51:29;6.45;;;2.65;;
9848;SDS011;4963;51.444;6.528;2022-08-23T12:53:57;4.88;;;3.22;;
9848;SDS011;4963;51.444;6.528;2022-08-23T12:56:40;6.88;;;2.58;;
9848;SDS011;4963;51.444;6.528;2022-08-23T12:59:20;6.35;;;2.80;;
9848;SDS011;4963;51.444;6.528;2022-08-23T13:02:00;5.65;;;2.50;;
9848;SDS011;4963;51.444;6.528;2022-08-23T13:04:30;6.70;;;2.35;;
9848;SDS011;4963;51.444;6.528;2022-08-23T13:06:58;6.28;;;2.70;;
9848;SDS011;4963;51.444;6.528;2022-08-23T13:09:30;5.72;;;2.90;;
9848;SDS011;4963;51.444;6.528;2022-08-23T13:12:02;6.82;;;2.83;;
9848;SDS011;4963;51.444;6.528;2022-08-23T13:14:33;7.28;;;2.80;;
9848;SDS011;4963;51.444;6.528;2022-08-23T13:17:12;6.65;;;2.80;;
9848;SDS011;4963;51.444;6.528;2022-08-23T13:19:41;5.32;;;2.88;;
9848;SDS011;4963;51.444;6.528;2022-08-23T13:22:09;6.75;;;2.60;;
9848;SDS011;4963;51.444;6.528;2022-08-23T13:24:38;4.15;;;2.22;;
9848;SDS011;4963;51.444;6.528;2022-08-23T13:29:56;6.53;;;2.63;;
9848;SDS011;4963;51.444;6.528;2022-08-23T13:32:37;4.03;;;2.50;;
9848;SDS011;4963;51.444;6.528;2022-08-23T13:35:21;4.50;;;3.00;;
9848;SDS011;4963;51.444;6.528;2022-08-23T13:37:50;5.75;;;2.63;;
9848;SDS011;4963;51.444;6.528;2022-08-23T13:40:21;6.75;;;2.70;;
9848;SDS011;4963;51.444;6.528;2022-08-23T13:42:51;5.00;;;2.80;;
9848;SDS011;4963;51.444;6.528;2022-08-23T13:45:24;4.93;;;2.75;;
9848;SDS011;4963;51.444;6.528;2022-08-23T13:47:54;4.18;;;2.67;;
9848;SDS011;4963;51.444;6.528;2022-08-23T13:50:24;5.13;;;2.45;;
9848;SDS011;4963;51.444;6.528;2022-08-23T13:52:53;4.68;;;2.33;;
9848;SDS011;4963;51.444;6.528;2022-08-23T13:55:20;7.07;;;2.63;;
9848;SDS011;4963;51.444;6.528;2022-08-23T13:57:48;5.65;;;2.53;;
9848;SDS011;4963;51.444;6.528;2022-08-23T14:00:17;4.28;;;2.75;;
9848;SDS011;4963;51.444;6.528;2022-08-23T14:02:45;6.80;;;2.47;;
9848;SDS011;4963;51.444;6.528;2022-08-23T14:05:13;7.40;;;2.35;;
9848;SDS011;4963;51.444;6.528;2022-08-23T14:07:43;4.53;;;2.30;;
9848;SDS011;4963;51.444;6.528;2022-08-23T14:10:11;4.35;;;2.20;;
9848;SDS011;4963;51.444;6.528;2022-08-23T14:12:39;3.80;;;2.58;;
9848;SDS011;4963;51.444;6.528;2022-08-23T14:15:10;6.70;;;2.88;;
9848;SDS011;4963;51.444;6.528;2022-08-23T14:17:41;6.55;;;2.72;;
9848;SDS011;4963;51.444;6.528;2022-08-23T14:20:11;4.07;;;2.13;;
9848;SDS011;4963;51.444;6.528;2022-08-23T14:22:38;3.30;;;2.03;;
9848;SDS011;4963;51.444;6.528;2022-08-23T14:25:06;5.55;;;2.25;;
9848;SDS011;4963;51.444;6.528;2022-08-23T14:27:34;4.78;;;2.42;;
9848;SDS011;4963;51.444;6.528;2022-08-23T14:30:04;5.57;;;2.10;;
9848;SDS011;4963;51.444;6.528;2022-08-23T14:32:32;4.55;;;2.13;;
9848;SDS011;4963;51.444;6.528;2022-08-23T14:35:01;5.40;;;2.13;;
9848;SDS011;4963;51.444;6.528;2022-08-23T14:37:27;6.13;;;2.35;;
9848;SDS011;4963;51.444;6.528;2022-08-23T14:39:54;2.75;;;1.80;;
9848;SDS011;4963;51.444;6.528;2022-08-23T14:42:22;4.85;;;2.00;;
9848;SDS011;4963;51.444;6.528;2022-08-23T14:44:49;6.00;;;2.35;;
9848;SDS011;4963;51.444;6.528;2022-08-23T14:47:16;5.32;;;2.83;;
9848;SDS011;4963;51.444;6.528;2022-08-23T14:49:43;4.65;;;2.55;;
9848;SDS011;4963;51.444;6.528;2022-08-23T14:52:13;5.40;;;2.30;;
9848;SDS011;4963;51.444;6.528;2022-08-23T14:54:40;3.63;;;2.25;;
9848;SDS011;4963;51.444;6.528;2022-08-23T14:57:08;5.47;;;2.22;;
9848;SDS011;4963;51.444;6.528;2022-08-23T14:59:35;5.03;;;2.20;;
9848;SDS011;4963;51.444;6.528;2022-08-23T15:02:02;6.22;;;2.05;;
9848;SDS011;4963;51.444;6.528;2022-08-23T15:04:30;5.82;;;2.22;;
9848;SDS011;4963;51.444;6.528;2022-08-23T15:06:56;4.05;;;2.10;;
9848;SDS011;4963;51.444;6.528;2022-08-23T15:09:25;3.80;;;2.17;;
9848;SDS011;4963;51.444;6.528;2022-08-23T15:11:52;3.20;;;2.20;;
9848;SDS011;4963;51.444;6.528;2022-08-23T15:14:19;4.43;;;2.28;;
9848;SDS011;4963;51.444;6.528;2022-08-23T15:16:46;3.22;;;2.03;;
9848;SDS011;4963;51.444;6.528;2022-08-23T15:19:13;7.03;;;2.45;;
9848;SDS011;4963;51.444;6.528;2022-08-23T15:21:40;4.18;;;2.30;;
9848;SDS011;4963;51.444;6.528;2022-08-23T15:24:07;3.17;;;1.80;;
9848;SDS011;4963;51.444;6.528;2022-08-23T15:26:35;3.22;;;2.05;;
9848;SDS011;4963;51.444;6.528;2022-08-23T15:29:02;4.18;;;2.22;;
9848;SDS011;4963;51.444;6.528;2022-08-23T15:31:30;5.38;;;2.30;;
9848;SDS011;4963;51.444;6.528;2022-08-23T15:33:57;4.47;;;2.20;;
9848;SDS011;4963;51.444;6.528;2022-08-23T15:36:24;4.63;;;2.00;;
9848;SDS011;4963;51.444;6.528;2022-08-23T15:38:51;3.72;;;1.92;;
9848;SDS011;4963;51.444;6.528;2022-08-23T15:41:19;5.60;;;2.25;;
9848;SDS011;4963;51.444;6.528;2022-08-23T15:43:47;3.65;;;2.13;;
9848;SDS011;4963;51.444;6.528;2022-08-23T15:46:16;4.00;;;2.05;;
9848;SDS011;4963;51.444;6.528;2022-08-23T15:48:46;2.40;;;1.92;;
9848;SDS011;4963;51.444;6.528;2022-08-23T15:51:17;4.40;;;2.05;;
9848;SDS011;4963;51.444;6.528;2022-08-23T15:53:44;4.93;;;2.00;;